Emmalena, Kentucky
Current Conditions -  °F | °C
As of 11:53 PM on Sunday 21 Dec 2014 (Local Time) from KJKL Reporting Station
Overcast Overcast  
Wind Chill: 33°   Ceiling: 4100
Heat Index: 37°   Visibility: 10mi
Dew Point: 26°   Wind: 5mph
Humidity: 65%   Direction: 90°E
Pressure: 30.1"   Gusts: NA
Location:  37.34°N, 82.98°W
Report Text: KJKL 220453Z AUTO 09004KT 10SM OVC041 03/M03 A3010 RMK AO2 SLP199 T00281033 400721033
Loading
Personal Weather Stations






























Interactive Weather Map New forecast layout! Learn more

10-Day Weather Forecast

Advertisements
Track Severe Weather on mobile